createdAt,value
2022-10-02T00:00:13.992Z,99349.16
2022-10-02T00:02:57.197Z,99356.25
2022-10-02T00:05:45.451Z,99360.34
2022-10-02T00:08:25.949Z,99363.53
2022-10-02T00:11:44.147Z,99367.72
2022-10-02T00:14:18.844Z,99369.56
2022-10-02T00:16:57.138Z,99366.56
2022-10-02T00:19:26.692Z,99369.22
2022-10-02T00:22:21.220Z,99365.09
2022-10-02T00:25:19.793Z,99377.31
2022-10-02T00:28:18.239Z,99376.56
2022-10-02T00:31:48.411Z,99378.19
2022-10-02T00:34:52.738Z,99364.94
2022-10-02T00:37:36.625Z,99375.34
2022-10-02T00:40:53.491Z,99372.88
2022-10-02T00:43:41.251Z,99379.13
2022-10-02T00:47:11.276Z,99385.09
2022-10-02T00:50:38.407Z,99392.25
2022-10-02T00:53:40.835Z,99400.00
2022-10-02T00:56:58.181Z,99394.16
2022-10-02T01:00:13.851Z,99401.28
2022-10-02T01:03:09.329Z,99410.09
2022-10-02T01:05:38.257Z,99407.72
2022-10-02T01:08:08.497Z,99410.94
2022-10-02T01:10:40.832Z,99401.81
2022-10-02T01:13:08.606Z,99408.09
2022-10-02T01:15:45.205Z,99409.94
2022-10-02T01:18:15.915Z,99412.31
2022-10-02T01:20:50.711Z,99411.38
2022-10-02T01:24:00.767Z,99397.81
2022-10-02T01:26:28.373Z,99407.44
2022-10-02T01:28:56.853Z,99405.59
2022-10-02T01:31:25.098Z,99397.63
2022-10-02T01:33:53.636Z,99401.00
2022-10-02T01:36:22.657Z,99402.09
2022-10-02T01:38:53.165Z,99400.34
2022-10-02T01:41:20.801Z,99403.28
2022-10-02T01:43:59.105Z,99417.19
2022-10-02T01:46:40.119Z,99415.47
2022-10-02T01:49:53.315Z,99421.69
2022-10-02T01:52:43.684Z,99425.69
2022-10-02T01:56:24.838Z,99428.31
2022-10-02T01:59:10.773Z,99442.31
2022-10-02T02:02:28.413Z,99438.00
2022-10-02T02:05:37.540Z,99427.78
2022-10-02T02:08:32.117Z,99432.84
2022-10-02T02:11:20.421Z,99430.91
2022-10-02T02:14:05.637Z,99439.59
2022-10-02T02:16:50.458Z,99442.63
2022-10-02T02:19:39.156Z,99439.41
2022-10-02T02:22:37.651Z,99452.84
2022-10-02T02:25:15.885Z,99461.59
2022-10-02T02:27:52.111Z,99459.88
2022-10-02T02:30:23.170Z,99457.19
2022-10-02T02:33:14.747Z,99475.38
2022-10-02T02:35:49.391Z,99474.00
2022-10-02T02:38:38.108Z,99486.28
2022-10-02T02:41:14.120Z,99489.59
2022-10-02T02:44:18.709Z,99504.88
2022-10-02T02:47:07.712Z,99497.91
2022-10-02T02:50:17.283Z,99506.78
2022-10-02T02:53:08.013Z,99500.97
2022-10-02T02:55:46.202Z,99501.34
2022-10-02T02:58:56.617Z,99506.72
2022-10-02T03:01:24.439Z,99515.13
2022-10-02T03:03:52.096Z,99525.53
2022-10-02T03:06:38.060Z,99525.22
2022-10-02T03:09:20.220Z,99519.41
2022-10-02T03:12:05.066Z,99531.16
2022-10-02T03:14:50.421Z,99528.25
2022-10-02T03:17:50.323Z,99521.28
2022-10-02T03:20:42.647Z,99528.41
2022-10-02T03:23:54.033Z,99530.91
2022-10-02T03:26:41.448Z,99542.66
2022-10-02T03:29:43.988Z,99543.72
2022-10-02T03:32:16.507Z,99553.97
2022-10-02T03:34:45.147Z,99555.50
2022-10-02T03:37:12.981Z,99559.56
2022-10-02T03:39:45.479Z,99553.97
2022-10-02T03:42:15.949Z,99558.50
2022-10-02T03:44:44.201Z,99569.47
2022-10-02T03:47:11.855Z,99565.59
2022-10-02T03:49:40.003Z,99563.44
2022-10-02T03:52:07.914Z,99572.69
2022-10-02T03:54:36.567Z,99569.69
2022-10-02T03:57:18.605Z,99580.13
2022-10-02T04:00:19.816Z,99574.97
2022-10-02T04:03:02.250Z,99578.06
2022-10-02T04:05:42.028Z,99577.44
2022-10-02T04:08:36.453Z,99581.44
2022-10-02T04:11:43.656Z,99584.53
2022-10-02T04:15:09.060Z,99590.69
2022-10-02T04:18:11.333Z,99604.38
2022-10-02T04:21:41.121Z,99602.44
2022-10-02T04:24:31.532Z,99605.06
2022-10-02T04:27:29.613Z,99608.22
2022-10-02T04:30:07.107Z,99611.66
2022-10-02T04:32:37.056Z,99604.75
2022-10-02T04:35:41.437Z,99605.06
2022-10-02T04:38:59.716Z,99599.81
2022-10-02T04:41:36.036Z,99602.22
2022-10-02T04:44:34.828Z,99606.28
2022-10-02T04:47:55.508Z,99619.44
2022-10-02T04:50:45.165Z,99617.69
2022-10-02T04:53:55.328Z,99617.72
2022-10-02T04:56:47.036Z,99629.34
2022-10-02T04:59:35.893Z,99633.44
2022-10-02T05:02:44.369Z,99637.31
2022-10-02T05:05:32.791Z,99649.38
2022-10-02T05:08:20.919Z,99647.44
2022-10-02T05:11:28.930Z,99646.69
2022-10-02T05:14:41.541Z,99653.47
2022-10-02T05:18:08.063Z,99663.59
2022-10-02T05:21:12.441Z,99665.31
2022-10-02T05:24:03.026Z,99669.75
2022-10-02T05:26:52.694Z,99662.22
2022-10-02T05:29:58.661Z,99661.56
2022-10-02T05:33:02.851Z,99667.16
2022-10-02T05:35:43.092Z,99669.09
2022-10-02T05:38:27.439Z,99677.72
2022-10-02T05:41:31.561Z,99685.13
2022-10-02T05:44:28.715Z,99690.44
2022-10-02T05:47:35.682Z,99685.88
2022-10-02T05:50:12.339Z,99695.03
2022-10-02T05:53:25.431Z,99692.13
2022-10-02T05:56:05.466Z,99679.09
2022-10-02T05:58:58.572Z,99689.41
2022-10-02T06:01:40.508Z,99687.13
2022-10-02T06:04:44.997Z,99686.09
2022-10-02T06:07:19.261Z,99691.00
2022-10-02T06:09:59.142Z,99687.75
2022-10-02T06:13:01.048Z,99692.69
2022-10-02T06:15:55.707Z,99700.41
2022-10-02T06:18:29.347Z,99692.22
2022-10-02T06:21:09.743Z,99700.31
2022-10-02T06:23:52.878Z,99704.75
2022-10-02T06:26:51.736Z,99699.75
2022-10-02T06:29:48.996Z,99707.59
2022-10-02T06:32:51.737Z,99713.00
2022-10-02T06:35:38.294Z,99719.84
2022-10-02T06:38:42.617Z,99726.91
2022-10-02T06:41:54.454Z,99736.78
2022-10-02T06:45:08.600Z,99733.31
2022-10-02T06:48:22.866Z,99744.53
2022-10-02T06:51:09.786Z,99744.13
2022-10-02T06:53:46.076Z,99757.59
2022-10-02T06:57:25.712Z,99767.41
2022-10-02T07:00:12.453Z,99776.78
2022-10-02T07:03:19.111Z,99772.44
2022-10-02T07:06:23.720Z,99778.06
2022-10-02T07:09:44.106Z,99784.53
2022-10-02T07:12:30.398Z,99785.94
2022-10-02T07:15:26.234Z,99791.84
2022-10-02T07:18:52.434Z,99787.38
2022-10-02T07:21:23.778Z,99790.50
2022-10-02T07:24:12.129Z,99798.44
2022-10-02T07:26:48.236Z,99799.56
2022-10-02T07:29:33.800Z,99798.19
2022-10-02T07:32:38.395Z,99796.63
2022-10-02T07:35:49.561Z,99800.44
2022-10-02T07:39:35.869Z,99798.88
2022-10-02T07:42:55.294Z,99803.25
2022-10-02T07:45:30.280Z,99808.59
2022-10-02T07:48:01.472Z,99806.06
2022-10-02T07:50:46.758Z,99809.22
2022-10-02T07:53:41.119Z,99809.69
2022-10-02T07:56:20.139Z,99807.81
2022-10-02T07:59:00.207Z,99805.94
2022-10-02T08:01:36.603Z,99806.44
2022-10-02T08:04:18.979Z,99803.94
2022-10-02T08:06:59.816Z,99801.00
2022-10-02T08:09:52.066Z,99806.28
2022-10-02T08:12:52.790Z,99798.25
2022-10-02T08:15:23.531Z,99806.63
2022-10-02T08:18:22.812Z,99800.31
2022-10-02T08:20:53.553Z,99803.34
2022-10-02T08:23:28.193Z,99798.13
2022-10-02T08:26:35.787Z,99794.97
2022-10-02T08:29:46.760Z,99796.31
2022-10-02T08:32:15.749Z,99801.56
2022-10-02T08:34:44.298Z,99808.59
2022-10-02T08:38:01.628Z,99813.94
2022-10-02T08:41:37.399Z,99792.88
2022-10-02T08:44:36.126Z,99792.25
2022-10-02T08:47:28.945Z,99807.88
2022-10-02T08:51:30.321Z,99805.91
2022-10-02T08:55:00.154Z,99804.69
2022-10-02T08:58:03.616Z,99798.94
2022-10-02T09:00:44.728Z,99815.31
2022-10-02T09:04:09.290Z,99808.25
2022-10-02T09:07:24.829Z,99827.88
2022-10-02T09:10:30.716Z,99830.06
2022-10-02T09:13:47.104Z,99829.25
2022-10-02T09:17:14.613Z,99834.66
2022-10-02T09:20:05.471Z,99838.78
2022-10-02T09:23:13.830Z,99833.94
2022-10-02T09:26:32.143Z,99840.53
2022-10-02T09:29:56.287Z,99829.13
2022-10-02T09:32:45.340Z,99827.00
2022-10-02T09:36:24.950Z,99819.13
2022-10-02T09:39:47.570Z,99816.50
2022-10-02T09:43:24.234Z,99823.84
2022-10-02T09:46:26.969Z,99817.75
2022-10-02T09:49:42.618Z,99823.69
2022-10-02T09:52:42.771Z,99828.56
2022-10-02T09:56:32.319Z,99824.66
2022-10-02T09:59:46.395Z,99813.59
2022-10-02T10:02:48.296Z,99809.66
2022-10-02T10:05:48.221Z,99809.91
2022-10-02T10:09:01.503Z,99819.97
2022-10-02T10:12:00.139Z,99816.19
2022-10-02T10:14:52.028Z,99827.06
2022-10-02T10:18:20.156Z,99816.34
2022-10-02T10:21:30.733Z,99819.50
2022-10-02T10:24:34.253Z,99818.91
2022-10-02T10:28:06.004Z,99824.31
2022-10-02T10:31:02.270Z,99812.50
2022-10-02T10:34:37.981Z,99804.47
2022-10-02T10:37:56.752Z,99811.28
2022-10-02T10:41:01.396Z,99810.06
2022-10-02T10:44:04.840Z,99809.06
2022-10-02T10:47:20.254Z,99795.94
2022-10-02T10:50:35.906Z,99793.38
2022-10-02T10:54:02.152Z,99788.94
2022-10-02T10:56:49.370Z,99795.06
2022-10-02T11:00:16.331Z,99787.25
2022-10-02T11:03:49.578Z,99794.13
2022-10-02T11:07:08.111Z,99792.59
2022-10-02T11:10:31.389Z,99800.00
2022-10-02T11:13:42.747Z,99799.31
2022-10-02T11:16:54.436Z,99797.47
2022-10-02T11:20:18.318Z,99791.59
2022-10-02T11:23:39.946Z,99786.03
2022-10-02T11:26:43.907Z,99799.56
2022-10-02T11:29:31.117Z,99796.72
2022-10-02T11:32:45.053Z,99786.03
2022-10-02T11:35:37.631Z,99803.44
2022-10-02T11:38:38.856Z,99804.81
2022-10-02T11:41:43.884Z,99791.47
2022-10-02T11:44:24.850Z,99791.88
2022-10-02T11:47:29.975Z,99792.69
2022-10-02T11:50:45.969Z,99785.28
2022-10-02T11:53:26.274Z,99779.56
2022-10-02T11:56:14.429Z,99778.63
2022-10-02T12:00:05.573Z,99776.31
2022-10-02T12:03:03.540Z,99783.88
2022-10-02T12:06:04.606Z,99788.00
2022-10-02T12:08:53.923Z,99784.59
2022-10-02T12:12:08.450Z,99782.22
2022-10-02T12:15:16.821Z,99779.28
2022-10-02T12:18:22.015Z,99785.88
2022-10-02T12:21:48.454Z,99786.06
2022-10-02T12:24:41.251Z,99776.75
2022-10-02T12:27:36.963Z,99776.06
2022-10-02T12:30:36.385Z,99765.06
2022-10-02T12:33:51.817Z,99768.31
2022-10-02T12:36:56.718Z,99761.28
2022-10-02T12:39:57.473Z,99759.44
2022-10-02T12:43:10.524Z,99751.56
2022-10-02T12:46:13.711Z,99744.56
2022-10-02T12:49:28.573Z,99743.88
2022-10-02T12:52:50.884Z,99737.88
2022-10-02T12:56:08.311Z,99724.53
2022-10-02T12:59:22.226Z,99716.38
2022-10-02T13:02:56.266Z,99715.78
2022-10-02T13:06:33.967Z,99718.34
2022-10-02T13:09:29.981Z,99715.66
2022-10-02T13:12:20.236Z,99709.06
2022-10-02T13:15:06.527Z,99712.09
2022-10-02T13:18:04.038Z,99708.06
2022-10-02T13:20:56.482Z,99701.78
2022-10-02T13:23:32.176Z,99698.34
2022-10-02T13:26:41.326Z,99698.78
2022-10-02T13:29:53.236Z,99696.06
2022-10-02T13:32:52.582Z,99702.91
2022-10-02T13:36:07.068Z,99696.75
2022-10-02T13:39:21.668Z,99699.00
2022-10-02T13:42:14.892Z,99696.25
2022-10-02T13:45:33.531Z,99700.59
2022-10-02T13:48:55.168Z,99693.75
2022-10-02T13:52:08.113Z,99690.59
2022-10-02T13:55:29.211Z,99687.88
2022-10-02T13:58:30.185Z,99692.00
2022-10-02T14:01:57.681Z,99686.78
2022-10-02T14:04:47.538Z,99673.91
2022-10-02T14:07:46.864Z,99670.88
2022-10-02T14:10:47.482Z,99670.75
2022-10-02T14:14:07.350Z,99663.84
2022-10-02T14:16:56.457Z,99663.16
2022-10-02T14:19:52.862Z,99678.09
2022-10-02T14:22:52.032Z,99675.28
2022-10-02T14:25:50.752Z,99674.25
2022-10-02T14:29:09.622Z,99675.31
2022-10-02T14:32:33.574Z,99681.66
2022-10-02T14:35:43.600Z,99669.41
2022-10-02T14:38:25.831Z,99674.66
2022-10-02T14:40:58.329Z,99662.84
2022-10-02T14:43:55.233Z,99657.34
2022-10-02T14:46:53.000Z,99653.53
2022-10-02T14:50:03.900Z,99653.88
2022-10-02T14:52:46.323Z,99647.28
2022-10-02T14:55:49.510Z,99643.91
2022-10-02T14:59:12.303Z,99642.31
2022-10-02T15:02:09.072Z,99634.25
2022-10-02T15:05:47.576Z,99624.13
2022-10-02T15:08:49.118Z,99619.63
2022-10-02T15:11:36.146Z,99622.75
2022-10-02T15:14:51.638Z,99618.25
2022-10-02T15:18:05.878Z,99619.28
2022-10-02T15:20:59.636Z,99619.50
2022-10-02T15:23:44.759Z,99618.41
2022-10-02T15:26:53.420Z,99616.34
2022-10-02T15:30:04.851Z,99614.75
2022-10-02T15:33:00.005Z,99618.56
2022-10-02T15:36:07.476Z,99616.78
2022-10-02T15:39:19.816Z,99610.16
2022-10-02T15:42:11.268Z,99601.31
2022-10-02T15:45:17.404Z,99594.19
2022-10-02T15:48:44.127Z,99587.75
2022-10-02T15:51:53.812Z,99578.94
2022-10-02T15:55:38.995Z,99580.53
2022-10-02T15:58:50.428Z,99592.78
2022-10-02T16:02:31.194Z,99597.28
2022-10-02T16:05:58.468Z,99598.28
2022-10-02T16:08:43.570Z,99600.75
2022-10-02T16:11:26.636Z,99597.28
2022-10-02T16:14:08.809Z,99582.06
2022-10-02T16:17:07.307Z,99582.69
2022-10-02T16:20:10.109Z,99594.03
2022-10-02T16:23:04.022Z,99584.69
2022-10-02T16:25:54.379Z,99582.78
2022-10-02T16:28:51.954Z,99585.69
2022-10-02T16:32:02.481Z,99582.78
2022-10-02T16:35:22.471Z,99576.34
2022-10-02T16:38:06.526Z,99569.25
2022-10-02T16:41:12.850Z,99572.69
2022-10-02T16:44:55.695Z,99570.94
2022-10-02T16:48:29.518Z,99584.50
2022-10-02T16:51:25.906Z,99583.88
2022-10-02T16:54:40.530Z,99586.69
2022-10-02T16:57:40.274Z,99585.00
2022-10-02T17:00:26.636Z,99585.22
2022-10-02T17:03:37.074Z,99579.59
2022-10-02T17:06:28.396Z,99575.66
2022-10-02T17:09:25.179Z,99568.28
2022-10-02T17:12:58.083Z,99571.97
2022-10-02T17:15:52.666Z,99566.06
2022-10-02T17:18:58.007Z,99567.69
2022-10-02T17:21:48.322Z,99569.38
2022-10-02T17:24:55.601Z,99568.53
2022-10-02T17:28:12.213Z,99576.28
2022-10-02T17:31:15.521Z,99561.78
2022-10-02T17:34:27.637Z,99570.41
2022-10-02T17:37:41.562Z,99569.75
2022-10-02T17:40:28.563Z,99571.13
2022-10-02T17:43:37.328Z,99576.28
2022-10-02T17:46:38.307Z,99574.69
2022-10-02T17:49:47.536Z,99567.94
2022-10-02T17:53:08.329Z,99572.72
2022-10-02T17:56:22.567Z,99573.47
2022-10-02T17:59:36.813Z,99572.97
2022-10-02T18:03:01.174Z,99573.34
2022-10-02T18:06:30.905Z,99568.94
2022-10-02T18:09:33.559Z,99570.59
2022-10-02T18:12:41.722Z,99577.38
2022-10-02T18:16:08.801Z,99568.31
2022-10-02T18:19:04.590Z,99559.81
2022-10-02T18:21:57.026Z,99564.59
2022-10-02T18:25:00.169Z,99569.25
2022-10-02T18:27:56.094Z,99573.41
2022-10-02T18:30:43.701Z,99574.16
2022-10-02T18:33:26.354Z,99566.91
2022-10-02T18:36:32.870Z,99566.81
2022-10-02T18:39:20.071Z,99565.81
2022-10-02T18:41:57.120Z,99566.66
2022-10-02T18:45:12.984Z,99572.22
2022-10-02T18:48:45.168Z,99566.06
2022-10-02T18:51:40.693Z,99566.91
2022-10-02T18:55:17.636Z,99561.25
2022-10-02T18:58:32.041Z,99567.28
2022-10-02T19:01:35.352Z,99559.41
2022-10-02T19:04:19.655Z,99562.13
2022-10-02T19:07:20.590Z,99569.84
2022-10-02T19:10:12.225Z,99574.41
2022-10-02T19:12:44.682Z,99575.50
2022-10-02T19:15:33.652Z,99567.78
2022-10-02T19:18:06.718Z,99564.47
2022-10-02T19:21:08.485Z,99568.88
2022-10-02T19:24:14.385Z,99555.75
2022-10-02T19:26:50.943Z,99561.63
2022-10-02T19:29:45.481Z,99563.84
2022-10-02T19:32:43.300Z,99563.47
2022-10-02T19:35:33.695Z,99563.22
2022-10-02T19:38:34.064Z,99559.75
2022-10-02T19:41:13.560Z,99550.81
2022-10-02T19:44:07.210Z,99553.75
2022-10-02T19:46:44.452Z,99546.34
2022-10-02T19:49:52.781Z,99549.94
2022-10-02T19:53:06.949Z,99539.75
2022-10-02T19:55:42.242Z,99543.91
2022-10-02T19:58:21.687Z,99535.09
2022-10-02T20:00:54.302Z,99532.41
2022-10-02T20:03:25.242Z,99527.72
2022-10-02T20:06:06.531Z,99532.41
2022-10-02T20:08:46.230Z,99521.50
2022-10-02T20:11:40.266Z,99523.31
2022-10-02T20:14:44.029Z,99516.22
2022-10-02T20:17:17.805Z,99518.56
2022-10-02T20:20:07.753Z,99518.06
2022-10-02T20:22:49.627Z,99518.16
2022-10-02T20:25:31.711Z,99510.69
2022-10-02T20:28:22.882Z,99520.63
2022-10-02T20:31:04.630Z,99517.91
2022-10-02T20:33:42.531Z,99502.72
2022-10-02T20:36:19.623Z,99507.84
2022-10-02T20:39:07.099Z,99498.16
2022-10-02T20:42:10.075Z,99487.72
2022-10-02T20:44:39.178Z,99492.63
2022-10-02T20:47:56.257Z,99495.81
2022-10-02T20:50:49.577Z,99497.91
2022-10-02T20:54:00.074Z,99498.28
2022-10-02T20:56:42.554Z,99494.47
2022-10-02T20:59:59.146Z,99480.81
2022-10-02T21:02:59.771Z,99491.16
2022-10-02T21:06:17.200Z,99487.22
2022-10-02T21:10:01.269Z,99486.72
2022-10-02T21:13:19.303Z,99482.31
2022-10-02T21:16:10.959Z,99485.75
2022-10-02T21:19:23.628Z,99485.88
2022-10-02T21:22:24.707Z,99497.25
2022-10-02T21:25:50.199Z,99500.72
2022-10-02T21:29:15.585Z,99494.81
2022-10-02T21:32:10.369Z,99478.38
2022-10-02T21:35:32.343Z,99472.72
2022-10-02T21:38:36.808Z,99486.72
2022-10-02T21:41:48.551Z,99470.53
2022-10-02T21:45:16.190Z,99470.38
2022-10-02T21:48:45.057Z,99466.97
2022-10-02T21:51:40.647Z,99476.38
2022-10-02T21:54:52.964Z,99469.53
2022-10-02T21:58:05.552Z,99462.75
2022-10-02T22:00:58.614Z,99466.41
2022-10-02T22:04:08.228Z,99464.63
2022-10-02T22:07:13.280Z,99459.22
2022-10-02T22:10:05.402Z,99469.50
2022-10-02T22:13:23.377Z,99464.38
2022-10-02T22:16:28.867Z,99457.22
2022-10-02T22:19:43.581Z,99469.50
2022-10-02T22:22:38.309Z,99465.06
2022-10-02T22:25:43.403Z,99473.53
2022-10-02T22:28:36.588Z,99466.16
2022-10-02T22:31:35.298Z,99463.59
2022-10-02T22:34:41.883Z,99476.09
2022-10-02T22:38:26.222Z,99456.09
2022-10-02T22:41:21.107Z,99443.09
2022-10-02T22:44:16.628Z,99442.00
2022-10-02T22:47:32.554Z,99438.22
2022-10-02T22:50:19.784Z,99438.06
2022-10-02T22:53:18.101Z,99445.16
2022-10-02T22:55:55.854Z,99443.22
2022-10-02T22:58:48.460Z,99443.97
2022-10-02T23:01:37.936Z,99443.81
2022-10-02T23:04:47.682Z,99434.88
2022-10-02T23:07:34.822Z,99437.13
2022-10-02T23:10:21.681Z,99435.88
2022-10-02T23:13:22.243Z,99427.63
2022-10-02T23:15:54.235Z,99441.50
2022-10-02T23:18:34.720Z,99439.00
2022-10-02T23:21:45.681Z,99436.31
2022-10-02T23:24:31.265Z,99441.34
2022-10-02T23:27:21.370Z,99445.75
2022-10-02T23:29:58.059Z,99438.31
2022-10-02T23:32:37.320Z,99438.75
2022-10-02T23:35:14.907Z,99441.72
2022-10-02T23:37:54.523Z,99441.84
2022-10-02T23:41:39.566Z,99435.94
2022-10-02T23:44:19.724Z,99427.97
2022-10-02T23:47:34.875Z,99431.47
2022-10-02T23:50:30.832Z,99426.06
2022-10-02T23:53:49.024Z,99435.13
2022-10-02T23:56:47.380Z,99437.25
2022-10-02T23:59:51.943Z,99436.31
